| time (UTC) | temp C | wind direction | speed KPH | gust KPH | rain 1hr cm | rain 24hr cm | rain mn cm | humidity % | barometer mb |
| 20260509043030 | 12 | 298 | 0.0 | 6.4 | 0.08 | 0.28 | 0.05 | 94 | 1009.2 |
| 20260509041525 | 12 | 292 | 1.6 | 6.4 | 0.05 | 0.25 | 0.03 | 94 | 1009.3 |
| 20260509040029 | 12 | 317 | 1.6 | 9.7 | 0.05 | 0.23 | 0.00 | 94 | 1009.5 |
| 20260509034522 | 12 | 336 | 1.6 | 8.0 | 0.05 | 0.20 | 0.20 | 94 | 1009.6 |
| 20260509033021 | 12 | 267 | 1.6 | 6.4 | 0.08 | 0.20 | 0.20 | 93 | 1009.8 |
| 20260509031525 | 12 | 260 | 0.0 | 4.8 | 0.15 | 0.20 | 0.20 | 93 | 1009.9 |
| 20260509030032 | 12 | 260 | 0.0 | 3.2 | 0.15 | 0.18 | 0.18 | 92 | 1009.9 |
| 20260509024519 | 12 | 260 | 0.0 | 1.6 | 0.13 | 0.15 | 0.15 | 92 | 1009.9 |
| 20260509023021 | 12 | 260 | 0.0 | 1.6 | 0.10 | 0.13 | 0.13 | 92 | 1009.8 |
| 20260509021523 | 12 | 260 | 0.0 | 4.8 | 0.05 | 0.05 | 0.05 | 91 | 1010.0 |
| 20260509020016 | 12 | 250 | 1.6 | 12.9 | 0.03 | 0.03 | 0.03 | 90 | 1010.0 |
| 20260509014514 | 13 | 327 | 1.6 | 9.7 | 0.03 | 0.03 | 0.03 | 89 | 1009.9 |
| 20260509013013 | 13 | 346 | 3.2 | 6.4 | 0.03 | 0.03 | 0.03 | 87 | 1009.9 |
| 20260509011511 | 13 | 280 | 4.8 | 9.7 | 0.00 | 0.00 | 0.00 | 85 | 1010.2 |
| 20260509010010 | 13 | 337 | 1.6 | 4.8 | 0.00 | 0.00 | 0.00 | 83 | 1009.3 |
| 20260509004513 | 14 | 337 | 1.6 | 6.4 | 0.00 | 0.00 | 0.00 | 82 | 1009.0 |
| 20260509003109 | 14 | 337 | 1.6 | 4.8 | 0.00 | 0.00 | 0.00 | 79 | 1009.1 |
| 20260509001509 | 15 | 336 | 3.2 | 8.0 | 0.00 | 0.00 | 0.00 | 76 | 1009.0 |
| 20260509000006 | 16 | 275 | 4.8 | 11.3 | 0.00 | 0.00 | 0.00 | 70 | 1009.4 |
| 20260508234512 | 17 | 330 | 4.8 | 9.7 | 0.00 | 0.00 | 0.00 | 63 | 1009.2 |
| 20260508233008 | 17 | 213 | 3.2 | 9.7 | 0.00 | 0.00 | 0.00 | 62 | 1009.0 |
| 20260508231504 | 17 | 197 | 1.6 | 8.0 | 0.00 | 0.00 | 0.00 | 61 | 1008.9 |
| 20260508230003 | 17 | 200 | 3.2 | 6.4 | 0.00 | 0.00 | 0.00 | 61 | 1008.8 |
| 20260508224501 | 17 | 200 | 1.6 | 4.8 | 0.00 | 0.00 | 0.00 | 62 | 1008.9 |
| 20260508223001 | 17 | 200 | 0.0 | 1.6 | 0.00 | 0.00 | 0.00 | 66 | 1008.8 |
| 20260508221600 | 17 | 200 | 0.0 | 4.8 | 0.00 | 0.00 | 0.00 | 63 | 1008.8 |
| 20260508220059 | 17 | 360 | 1.6 | 6.4 | 0.00 | 0.00 | 0.00 | 59 | 1008.8 |
| 20260508214601 | 18 | 360 | 3.2 | 9.7 | 0.00 | 0.00 | 0.00 | 53 | 1008.8 |
| 20260508213058 | 18 | 205 | 3.2 | 12.9 | 0.00 | 0.00 | 0.00 | 53 | 1008.8 |
| 20260508211600 | 18 | 209 | 6.4 | 11.3 | 0.00 | 0.00 | 0.00 | 53 | 1008.7 |
| 20260508210059 | 18 | 193 | 6.4 | 12.9 | 0.00 | 0.00 | 0.00 | 53 | 1009.1 |
| 20260508204558 | 18 | 209 | 4.8 | 12.9 | 0.00 | 0.00 | 0.00 | 53 | 1008.9 |
| 20260508203103 | 18 | 191 | 4.8 | 12.9 | 0.00 | 0.00 | 0.00 | 51 | 1009.2 |
| 20260508201558 | 18 | 228 | 8.0 | 16.1 | 0.00 | 0.00 | 0.00 | 52 | 1009.7 |
| 20260508200049 | 18 | 203 | 8.0 | 22.5 | 0.00 | 0.00 | 0.00 | 52 | 1010.1 |
| 20260508194546 | 18 | 207 | 8.0 | 17.7 | 0.00 | 0.00 | 0.00 | 51 | 1010.1 |
| 20260508193044 | 18 | 219 | 9.7 | 19.3 | 0.00 | 0.00 | 0.00 | 50 | 1010.4 |
| 20260508191548 | 18 | 234 | 6.4 | 16.1 | 0.00 | 0.00 | 0.00 | 51 | 1010.6 |
| 20260508190040 | 18 | 226 | 9.7 | 17.7 | 0.00 | 0.00 | 0.00 | 49 | 1010.8 |
| 20260508184539 | 18 | 209 | 6.4 | 19.3 | 0.00 | 0.00 | 0.00 | 51 | 1010.9 |
| 20260508183040 | 18 | 175 | 4.8 | 14.5 | 0.00 | 0.00 | 0.00 | 52 | 1010.9 |
| 20260508181536 | 19 | 360 | 6.4 | 17.7 | 0.00 | 0.00 | 0.00 | 50 | 1011.0 |
| 20260508180036 | 19 | 199 | 8.0 | 16.1 | 0.00 | 0.00 | 0.00 | 52 | 1011.3 |
| 20260508174528 | 18 | 194 | 4.8 | 17.7 | 0.00 | 0.00 | 0.00 | 56 | 1011.5 |
| 20260508173025 | 17 | 211 | 4.8 | 19.3 | 0.00 | 0.00 | 0.00 | 54 | 1012.0 |
| 20260508171521 | 17 | 192 | 6.4 | 16.1 | 0.00 | 0.00 | 0.00 | 55 | 1012.3 |
| 20260508170019 | 17 | 210 | 8.0 | 17.7 | 0.00 | 0.00 | 0.00 | 57 | 1012.6 |
| 20260508164515 | 17 | 184 | 6.4 | 16.1 | 0.00 | 0.00 | 0.00 | 57 | 1012.9 |
| 20260508163012 | 17 | 176 | 6.4 | 16.1 | 0.00 | 0.00 | 0.00 | 57 | 1013.1 |
| 20260508161509 | 16 | 199 | 8.0 | 16.1 | 0.00 | 0.00 | 0.00 | 57 | 1013.3 |
| 20260508160012 | 16 | 217 | 8.0 | 20.9 | 0.00 | 0.00 | 0.00 | 59 | 1013.5 |
| 20260508154506 | 16 | 194 | 8.0 | 17.7 | 0.00 | 0.00 | 0.00 | 59 | 1013.6 |
| 20260508153003 | 16 | 225 | 12.9 | 20.9 | 0.00 | 0.00 | 0.00 | 58 | 1013.6 |
| 20260508151501 | 16 | 193 | 11.3 | 19.3 | 0.00 | 0.00 | 0.00 | 57 | 1013.6 |
| 20260508150109 | 16 | 211 | 12.9 | 24.1 | 0.00 | 0.00 | 0.00 | 58 | 1013.7 |
| 20260508144553 | 15 | 217 | 11.3 | 27.4 | 0.00 | 0.00 | 0.00 | 59 | 1013.8 |
| 20260508143106 | 15 | 158 | 6.4 | 17.7 | 0.00 | 0.00 | 0.00 | 60 | 1014.1 |
| 20260508141545 | 14 | 175 | 9.7 | 17.7 | 0.00 | 0.00 | 0.00 | 59 | 1014.1 |
| 20260508140049 | 13 | 244 | 9.7 | 24.1 | 0.00 | 0.00 | 0.00 | 60 | 1014.3 |
| 20260508134538 | 13 | 212 | 9.7 | 22.5 | 0.00 | 0.00 | 0.00 | 61 | 1014.4 |
| 20260508133032 | 12 | 230 | 8.0 | 16.1 | 0.00 | 0.00 | 0.00 | 63 | 1014.4 |
| 20260508131527 | 12 | 208 | 4.8 | 11.3 | 0.00 | 0.00 | 0.00 | 67 | 1014.4 |
| 20260508130022 | 11 | 215 | 4.8 | 16.1 | 0.00 | 0.00 | 0.00 | 67 | 1014.4 |
| 20260508124517 | 10 | 200 | 6.4 | 16.1 | 0.00 | 0.00 | 0.00 | 69 | 1014.5 |
| 20260508123013 | 10 | 205 | 4.8 | 11.3 | 0.00 | 0.00 | 0.00 | 70 | 1014.4 |
| 20260508121512 | 9 | 198 | 4.8 | 11.3 | 0.00 | 0.00 | 0.00 | 70 | 1014.3 |
| 20260508120011 | 8 | 198 | 4.8 | 11.3 | 0.00 | 0.00 | 0.00 | 72 | 1014.3 |
| 20260508114510 | 8 | 200 | 3.2 | 9.7 | 0.00 | 0.00 | 0.00 | 73 | 1014.1 |
| 20260508113008 | 8 | 198 | 1.6 | 8.0 | 0.00 | 0.00 | 0.00 | 74 | 1014.1 |
| 20260508111506 | 8 | 198 | 3.2 | 6.4 | 0.00 | 0.00 | 0.00 | 73 | 1014.0 |
| 20260508110006 | 8 | 198 | 1.6 | 9.7 | 0.00 | 0.00 | 0.00 | 72 | 1013.9 |
| 20260508104504 | 8 | 198 | 3.2 | 6.4 | 0.00 | 0.00 | 0.00 | 72 | 1013.9 |
| 20260508103002 | 8 | 198 | 1.6 | 6.4 | 0.00 | 0.00 | 0.00 | 72 | 1013.7 |
| 20260508101559 | 8 | 198 | 1.6 | 4.8 | 0.00 | 0.00 | 0.00 | 72 | 1013.8 |
| 20260508100058 | 8 | 198 | 3.2 | 4.8 | 0.00 | 0.00 | 0.00 | 71 | 1013.8 |
| 20260508094558 | 9 | 198 | 4.8 | 8.0 | 0.00 | 0.00 | 0.00 | 69 | 1013.8 |
| 20260508093056 | 9 | 198 | 1.6 | 8.0 | 0.00 | 0.00 | 0.00 | 70 | 1013.8 |
| 20260508091608 | 9 | 198 | 3.2 | 8.0 | 0.00 | 0.00 | 0.00 | 69 | 1013.8 |
| 20260508090056 | 10 | 198 | 3.2 | 12.9 | 0.00 | 0.00 | 0.00 | 68 | 1013.9 |
| 20260508084603 | 10 | 192 | 4.8 | 9.7 | 0.00 | 0.00 | 0.00 | 67 | 1013.9 |
| 20260508083103 | 10 | 201 | 3.2 | 8.0 | 0.00 | 0.00 | 0.00 | 69 | 1013.9 |
| 20260508081554 | 9 | 199 | 3.2 | 9.7 | 0.00 | 0.00 | 0.00 | 68 | 1013.8 |
| 20260508080105 | 9 | 199 | 3.2 | 8.0 | 0.00 | 0.00 | 0.00 | 70 | 1013.9 |
| 20260508074554 | 8 | 200 | 3.2 | 8.0 | 0.00 | 0.00 | 0.00 | 71 | 1013.9 |
| 20260508073056 | 8 | 200 | 1.6 | 6.4 | 0.00 | 0.00 | 0.00 | 72 | 1013.9 |
| 20260508071547 | 8 | 200 | 1.6 | 9.7 | 0.00 | 0.00 | 0.00 | 72 | 1013.9 |
| 20260508070044 | 8 | 209 | 1.6 | 4.8 | 0.00 | 0.00 | 0.00 | 71 | 1014.1 |
| 20260508064547 | 9 | 209 | 0.0 | 4.8 | 0.00 | 0.00 | 0.00 | 69 | 1014.1 |
| 20260508063042 | 9 | 217 | 1.6 | 6.4 | 0.00 | 0.00 | 0.00 | 69 | 1014.3 |
| 20260508061538 | 9 | 217 | 3.2 | 8.0 | 0.00 | 0.00 | 0.00 | 68 | 1014.4 |
| 20260508060037 | 9 | 218 | 3.2 | 8.0 | 0.00 | 0.00 | 0.00 | 68 | 1014.4 |
| 20260508054544 | 9 | 194 | 3.2 | 8.0 | 0.00 | 0.00 | 0.00 | 67 | 1014.7 |
| 20260508053038 | 10 | 194 | 3.2 | 8.0 | 0.00 | 0.00 | 0.00 | 67 | 1014.5 |
| 20260508051538 | 9 | 195 | 3.2 | 8.0 | 0.00 | 0.00 | 0.00 | 68 | 1014.6 |
| 20260508050035 | 10 | 194 | 1.6 | 4.8 | 0.00 | 0.00 | 0.00 | 68 | 1014.6 |
| 20260508044529 | 10 | 195 | 3.2 | 6.4 | 0.00 | 0.00 | 0.00 | 67 | 1014.6 |